Latest Weather Observations for Canberra

IDN60901

Issued at 2:05 pm EDT Saturday 29 November 2014 (issued every 10 minutes, with the page automatically refreshed every 10 minutes)

About weather observations | Map of Canberra area stations | Latest observations for Canberra area | Other Formats
Station Details ID: 070351 Name: CANBERRA AIRPORT Lat: -35.31 Lon: 149.20 Height: 577.05 m
Data from the previous 72 hours. | See also: Recent months at Canberra
Date/Time
EDT
Tmp

°C
App
Tmp
°C
Dew
Point
°C
Rel
Hum
%
Delta-T

°C
Wind Press
QNH
hPa
Press
MSL
hPa
Rain
since
9 am
mm
Dir
 
Spd
km/h
Gust
km/h
Spd
kts
Gust
kts
29/02:00pm 28.1 24.4 6.2 25 11.8 WNW 15 24 8 13 1015.9 - 0.0
29/01:30pm 27.4 22.9 6.2 26 11.4 NNW 19 24 10 13 1016.4 - 0.0
29/01:00pm 27.2 23.3 8.6 31 10.4 W 19 28 10 15 1016.9 - 0.0
29/12:30pm 25.8 22.3 8.8 34 9.5 W 17 28 9 15 1017.4 - 0.0
29/12:00pm 24.6 23.0 10.1 40 8.2 NNW 9 22 5 12 1017.9 1016.6 0.0
29/11:30am 24.0 21.6 9.9 41 7.9 WNW 13 26 7 14 1018.4 - 0.0
29/11:00am 22.6 21.1 9.0 42 7.5 WNW 7 13 4 7 1018.9 - 0.0
29/10:30am 21.3 19.9 9.5 47 6.5 W 7 11 4 6 1019.6 - 0.0
29/10:00am 19.6 18.3 10.0 54 5.3 N 7 11 4 6 1019.9 - 0.0
29/09:30am 18.5 17.3 9.6 56 4.8 SW 6 9 3 5 1020.3 - 0.0
29/09:00am 17.4 16.1 9.8 61 4.1 NW 7 11 4 6 1020.6 1019.4 0.0
29/08:30am 15.9 14.7 9.6 66 3.4 ENE 6 9 3 5 1020.5 - 0.0
29/08:00am 15.0 13.8 10.2 73 2.6 SSE 7 11 4 6 1020.2 - 0.0
29/07:30am 13.4 12.2 10.4 82 1.6 SE 7 9 4 5 1020.3 - 0.0
29/07:00am 12.5 11.0 10.4 87 1.1 SE 9 11 5 6 1020.2 - 0.0
29/06:30am 11.4 9.8 10.1 92 0.7 SE 9 13 5 7 1020.1 - 0.0
29/06:00am 10.4 9.0 9.0 91 0.7 SSE 6 7 3 4 1020.0 1018.8 0.0
29/05:30am 10.8 8.9 8.9 88 1.0 SSE 9 11 5 6 1019.8 - 0.0
29/05:04am 11.2 9.3 8.9 86 1.2 SSE 9 13 5 7 1019.5 - 0.0
29/05:00am 11.5 9.6 9.2 86 1.2 SE 9 13 5 7 1019.5 - 0.0
29/04:30am 12.1 9.9 9.3 83 1.5 ESE 11 13 6 7 1019.7 - 0.0
29/04:25am 12.5 10.0 9.7 83 1.5 ESE 13 15 7 8 1019.7 - 0.0
29/04:00am 12.5 9.6 9.7 83 1.5 E 15 19 8 10 1019.6 - 0.0
29/03:55am 12.6 9.7 9.6 82 1.6 E 15 19 8 10 1019.7 - 0.0
29/03:30am 13.2 11.5 10.0 81 1.7 E 9 11 5 6 1019.9 - 0.0
29/03:00am 13.9 12.3 10.3 79 1.9 E 9 11 5 6 1020.1 1018.9 0.0
29/02:30am 14.0 12.5 10.6 80 1.8 E 9 13 5 7 1020.2 - 0.0
29/02:00am 14.1 11.9 10.7 80 1.8 ESE 13 17 7 9 1020.4 - 0.0
29/01:30am 14.1 12.3 10.9 81 1.7 ESE 11 15 6 8 1020.5 - 0.0
29/01:00am 13.8 12.1 11.1 84 1.5 ESE 11 15 6 8 1020.7 - 0.0
29/12:47am 13.2 11.3 10.6 84 1.4 ESE 11 15 6 8 1020.7 - 0.0
29/12:30am 13.0 10.6 10.2 83 1.5 E 13 15 7 8 1020.7 - 0.0
29/12:00am 13.7 11.4 10.5 81 1.7 E 13 13 7 7 1020.9 1019.7 0.0
 
Date/Time
EDT
Tmp

°C
App
Tmp
°C
Dew
Point
°C
Rel
Hum
%
Delta-T

°C
Wind Press
QNH
hPa
Press
MSL
hPa
Rain
since
9 am
mm
Dir
 
Spd
km/h
Gust
km/h
Spd
kts
Gust
kts
28/11:30pm 14.3 12.4 10.5 78 2.1 ESE 11 15 6 8 1020.9 - 0.0
28/11:00pm 14.9 13.0 10.5 75 2.4 ESE 11 17 6 9 1020.9 - 0.0
28/10:30pm 15.9 14.1 10.7 71 2.8 ESE 11 19 6 10 1020.7 - 0.0
28/10:00pm 16.3 13.7 10.6 69 3.1 E 15 22 8 12 1020.3 - 0.0
28/09:30pm 17.5 15.4 11.1 66 3.6 E 13 22 7 12 1019.8 - 0.0
28/09:00pm 18.5 16.0 11.1 62 4.1 ESE 15 26 8 14 1019.3 1018.0 0.0
28/08:30pm 19.3 14.0 11.3 60 4.5 E 30 37 16 20 1018.7 - 0.0
28/08:00pm 21.4 16.0 10.9 51 5.9 E 30 39 16 21 1018.2 - 0.0
28/07:46pm 22.6 17.0 10.1 45 7.0 E 30 37 16 20 1018.1 - 0.0
28/07:30pm 25.2 21.6 4.9 27 10.5 NNE 13 19 7 10 1017.8 - 0.0
28/07:00pm 25.7 22.5 5.3 27 10.7 N 11 15 6 8 1017.6 - 0.0
28/06:30pm 26.3 24.1 5.3 26 11.0 NNW 6 13 3 7 1017.5 - 0.0
28/06:00pm 26.4 23.3 5.4 26 11.1 NW 11 17 6 9 1017.4 1016.1 0.0
28/05:30pm 26.4 24.1 5.9 27 10.9 NNE 7 11 4 6 1017.7 - 0.0
28/05:00pm 26.0 22.8 5.0 26 11.0 N 11 17 6 9 1017.9 - 0.0
28/04:30pm 26.7 23.4 6.2 27 11.0 N 13 20 7 11 1018.3 - 0.0
28/04:00pm 26.4 23.8 5.9 27 10.9 NNW 9 13 5 7 1018.6 - 0.0
28/03:30pm 26.0 22.5 5.6 27 10.8 WNW 13 24 7 13 1019.0 - 0.0
28/03:00pm 26.1 22.8 6.2 28 10.6 NNE 13 24 7 13 1019.4 1018.1 0.0
28/02:30pm 25.4 22.7 5.6 28 10.4 SSW 9 17 5 9 1019.8 - 0.0
28/02:00pm 24.2 20.7 5.5 30 9.7 NW 13 19 7 10 1020.3 - 0.0
28/01:30pm 24.5 21.3 6.7 32 9.5 NNW 13 20 7 11 1020.8 - 0.0
28/01:00pm 23.0 20.1 6.3 34 8.8 NW 11 19 6 10 1021.6 - 0.0
28/12:30pm 22.6 19.7 8.0 39 7.9 ENE 13 20 7 11 1022.1 - 0.0
28/12:00pm 21.2 18.6 7.8 42 7.1 NE 11 17 6 9 1022.5 1021.3 0.0
28/11:30am 20.4 17.7 7.4 43 6.9 NNW 11 19 6 10 1023.0 - 0.0
28/11:00am 19.8 17.4 8.8 49 5.9 NNE 11 20 6 11 1023.4 - 0.0
28/10:30am 18.3 15.6 7.4 49 5.7 NNW 11 19 6 10 1023.7 - 0.0
28/10:00am 17.0 14.4 7.9 55 4.7 NNE 11 17 6 9 1023.9 - 0.0
28/09:30am 15.6 12.9 7.4 58 4.2 E 11 19 6 10 1024.2 - 0.0
28/09:00am 14.4 11.7 7.5 63 3.5 SE 11 19 6 10 1024.4 1023.3 0.0
28/08:30am 13.3 11.1 8.0 70 2.7 ENE 9 15 5 8 1024.5 - 0.0
28/08:00am 12.5 9.9 7.6 72 2.5 ENE 11 19 6 10 1024.5 - 0.0
28/07:41am 12.5 10.2 7.6 72 2.5 ENE 9 13 5 7 1024.4 - 0.0
28/07:30am 12.2 10.3 7.5 73 2.4 NE 7 9 4 5 1024.3 - 0.0
28/07:00am 10.7 8.6 8.3 85 1.2 N 9 11 5 6 1024.2 - 0.0
28/06:30am 7.5 4.6 6.3 92 0.6 NNW 11 11 6 6 1023.8 - 0.0
28/06:00am 6.6 4.8 5.2 91 0.6 N 4 6 2 3 1023.4 1022.2 0.0
28/05:30am 7.1 4.7 5.4 89 0.8 E 7 7 4 4 1023.2 - 0.0
28/05:00am 7.8 6.6 6.6 92 0.6 NE 2 7 1 4 1023.1 - 0.0
28/04:30am 7.6 5.0 6.2 91 0.7 ESE 9 11 5 6 1023.0 - 0.0
28/04:00am 7.6 4.9 5.6 87 0.9 E 9 11 5 6 1023.1 - 0.0
28/03:30am 9.0 6.7 7.3 89 0.8 E 9 9 5 5 1023.2 - 0.0
28/03:00am 8.6 5.7 6.7 88 0.9 E 11 13 6 7 1023.4 1022.2 0.0
28/02:30am 9.0 7.0 7.0 87 1.0 ESE 7 9 4 5 1023.8 - 0.0
28/02:00am 10.1 7.9 7.9 86 1.1 SE 9 9 5 5 1023.9 - 0.0
28/01:30am 10.7 8.1 7.9 83 1.4 SSE 11 13 6 7 1024.0 - 0.0
28/01:00am 11.7 9.2 8.2 79 1.8 E 11 15 6 8 1024.4 - 0.0
28/12:42am 12.2 9.3 8.1 76 2.1 ESE 13 15 7 8 1024.8 - 0.0
28/12:30am 12.8 10.4 8.5 75 2.2 E 11 17 6 9 1024.6 - 0.0
28/12:00am 13.0 9.9 8.7 75 2.2 E 15 22 8 12 1024.6 1023.5 0.0
 
Date/Time
EDT
Tmp

°C
App
Tmp
°C
Dew
Point
°C
Rel
Hum
%
Delta-T

°C
Wind Press
QNH
hPa
Press
MSL
hPa
Rain
since
9 am
mm
Dir
 
Spd
km/h
Gust
km/h
Spd
kts
Gust
kts
27/11:30pm 13.0 9.1 9.3 78 1.9 E 20 26 11 14 1024.8 - 0.0
27/11:00pm 13.3 10.0 9.4 77 2.0 E 17 24 9 13 1025.0 - 0.0
27/10:30pm 13.4 10.5 9.6 78 2.0 ENE 15 20 8 11 1025.1 - 0.0
27/10:00pm 13.6 9.9 9.5 76 2.2 E 19 28 10 15 1024.9 - 0.0
27/09:30pm 13.7 9.5 9.7 77 2.1 E 22 30 12 16 1024.4 - 0.0
27/09:00pm 13.9 10.6 9.7 76 2.2 E 17 22 9 12 1024.3 1023.1 0.0
27/08:30pm 13.9 10.1 9.9 77 2.1 E 20 32 11 17 1023.9 - 0.0
27/08:20pm 13.9 10.3 9.9 77 2.1 E 19 30 10 16 1023.7 - 0.0
27/08:00pm 14.1 10.3 9.9 76 2.2 E 20 32 11 17 1023.3 - 0.0
27/07:30pm 15.2 10.0 10.2 72 2.7 E 28 39 15 21 1022.6 - 0.0
27/07:00pm 16.0 10.8 10.3 69 3.1 E 28 41 15 22 1022.1 - 0.0
27/06:30pm 18.5 12.8 11.1 62 4.1 E 32 48 17 26 1021.4 - 0.0
27/06:00pm 18.4 12.7 11.0 62 4.1 E 32 41 17 22 1020.7 1019.5 0.0
27/05:30pm 20.4 15.0 10.8 54 5.4 E 30 50 16 27 1020.2 - 0.0
27/05:09pm 21.8 16.5 10.0 47 6.6 ENE 28 46 15 25 1019.9 - 0.0
27/05:00pm 23.2 19.1 8.5 39 8.0 ENE 20 32 11 17 1019.8 - 0.0
27/04:30pm 23.7 20.2 7.3 35 8.8 ENE 15 26 8 14 1019.7 - 0.0
27/04:00pm 24.7 21.8 6.4 31 9.7 NNW 11 24 6 13 1019.8 - 0.0
27/03:30pm 23.1 19.3 7.6 37 8.3 NE 17 22 9 12 1020.2 - 0.0
27/03:00pm 24.8 22.2 7.9 34 9.2 N 11 19 6 10 1020.4 1019.2 0.0
27/02:30pm 22.9 18.6 7.8 38 8.1 ENE 20 33 11 18 1020.8 - 0.0
27/02:00pm 22.6 19.0 6.8 36 8.3 N 15 26 8 14 1020.9 - 0.0
27/01:30pm 21.7 18.4 7.9 41 7.4 NE 15 22 8 12 1021.3 - 0.0
27/01:00pm 23.0 20.2 8.7 40 7.8 NNE 13 19 7 10 1021.5 - 0.0
27/12:30pm 20.9 18.4 8.2 44 6.8 N 11 15 6 8 1021.8 - 0.0
27/12:00pm 20.6 18.7 9.2 48 6.2 NNE 9 11 5 6 1022.2 1021.0 0.0
27/11:30am 19.7 17.7 10.1 54 5.3 N 11 20 6 11 1022.5 - 0.0
27/11:00am 18.9 16.4 9.7 55 5.0 N 13 19 7 10 1022.7 - 0.0
27/10:30am 19.3 17.0 10.3 56 5.0 NNE 13 22 7 12 1023.0 - 0.0
27/10:00am 18.3 16.1 10.7 61 4.2 NNE 13 24 7 13 1023.1 - 0.0
27/09:30am 16.8 13.8 9.2 61 4.1 NE 15 20 8 11 1023.1 - 0.0
27/09:00am 16.7 14.4 10.5 67 3.4 NNE 13 17 7 9 1023.2 1022.0 0.0
27/08:30am 16.2 14.6 10.3 68 3.2 ENE 9 17 5 9 1023.1 - 0.0
27/08:00am 15.3 13.8 10.7 74 2.5 ENE 9 17 5 9 1023.1 - 0.0
27/07:30am 15.1 11.7 10.5 74 2.5 ENE 19 24 10 13 1022.6 - 0.0
27/07:00am 14.9 12.8 11.1 78 2.1 ENE 13 15 7 8 1022.4 - 0.0
27/06:30am 14.4 12.5 10.6 78 2.1 E 11 13 6 7 1022.1 - 0.0
27/06:00am 14.3 12.4 10.5 78 2.0 E 11 13 6 7 1021.9 1020.7 0.0
27/05:30am 14.3 12.8 10.5 78 2.1 ENE 9 11 5 6 1021.6 - 0.0
27/05:00am 14.4 13.3 10.8 79 2.0 SE 7 11 4 6 1021.3 - 0.0
27/04:30am 14.4 12.1 10.6 78 2.1 E 13 15 7 8 1020.9 - 0.0
27/04:00am 14.5 12.7 10.9 79 2.0 ESE 11 13 6 7 1020.8 - 0.0
27/03:30am 14.3 12.5 10.7 79 2.0 E 11 13 6 7 1020.7 - 0.0
27/03:27am 14.3 12.5 10.7 79 2.0 E 11 15 6 8 1020.7 - 0.0
27/03:12am 14.4 12.5 10.6 78 2.1 E 11 15 6 8 1020.7 - 0.0
27/03:00am 14.5 11.9 10.7 78 2.1 E 15 20 8 11 1020.8 1019.6 0.0
27/02:30am 14.7 13.3 10.9 78 2.1 SE 9 15 5 8 1020.7 - 0.0
27/02:00am 15.0 13.6 10.8 76 2.3 ESE 9 15 5 8 1020.6 - 0.0
27/01:30am 15.2 13.4 10.8 75 2.4 SE 11 15 6 8 1020.7 - 0.0
27/01:00am 15.5 13.8 11.1 75 2.4 E 11 15 6 8 1020.9 - 0.0
27/12:30am 15.7 14.5 11.5 76 2.3 ESE 9 13 5 7 1021.1 - 0.0
27/12:00am 15.8 13.8 11.6 76 2.3 ESE 13 19 7 10 1021.2 1019.9 0.0
 
Date/Time
EDT
Tmp

°C
App
Tmp
°C
Dew
Point
°C
Rel
Hum
%
Delta-T

°C
Wind Press
QNH
hPa
Press
MSL
hPa
Rain
since
9 am
mm
Dir
 
Spd
km/h
Gust
km/h
Spd
kts
Gust
kts
26/11:30pm 16.0 14.5 11.8 76 2.3 ESE 11 17 6 9 1021.4 - 0.0
26/11:00pm 15.9 14.3 11.7 76 2.3 SE 11 19 6 10 1021.3 - 0.0
26/10:30pm 16.1 14.6 11.9 76 2.4 SE 11 17 6 9 1021.4 - 0.0
26/10:00pm 16.1 15.0 11.9 76 2.4 ESE 9 15 5 8 1020.8 - 0.0
26/09:38pm 15.8 14.6 11.6 76 2.3 S 9 15 5 8 1020.7 - 0.0
26/09:30pm 15.6 13.2 11.4 76 2.3 ESE 15 26 8 14 1020.5 - 0.0
26/09:00pm 16.0 14.0 11.4 74 2.5 ESE 13 30 7 16 1020.1 1018.9 0.0
26/08:30pm 16.3 12.5 11.0 71 2.9 ESE 22 30 12 16 1019.7 - 0.0
26/08:00pm 17.3 13.9 10.7 65 3.6 E 19 28 10 15 1019.1 - 0.0
26/07:30pm 18.8 15.3 10.9 60 4.4 E 20 30 11 16 1018.5 - 0.0
26/07:00pm 19.8 14.1 11.3 58 4.8 E 32 41 17 22 1017.4 - 0.0
26/06:30pm 22.2 17.7 10.0 46 6.8 ENE 24 30 13 16 1016.6 - 0.0
26/06:00pm 24.3 19.5 4.6 28 10.1 N 19 26 10 14 1015.8 1014.5 0.0
26/05:30pm 25.3 20.9 5.0 27 10.6 N 17 24 9 13 1015.8 - 0.0
26/05:00pm 26.0 22.5 5.6 27 10.8 NW 13 19 7 10 1015.8 - 0.0
26/04:30pm 25.3 21.2 4.4 26 10.7 NNW 15 28 8 15 1016.0 - 0.0
26/04:00pm 25.2 21.0 3.8 25 10.9 WNW 15 26 8 14 1016.2 - 0.0
26/03:30pm 25.6 21.0 3.5 24 11.2 WNW 17 26 9 14 1016.4 - 0.0
26/03:00pm 26.1 21.7 2.7 22 11.7 W 15 28 8 15 1016.6 1015.3 0.0
26/02:30pm 24.9 20.5 0.4 20 11.7 W 13 20 7 11 1016.9 - 0.0

Latest Capital City Observations: Canberra | Sydney | Melbourne | Brisbane | Adelaide | Perth | Hobart | Darwin

Other Formats:

Comma delimited format used in spreadsheet applications
http://www.bom.gov.au/fwo/IDN60903/IDN60903.94926.axf

JavaScript Object Notation format (JSON) in row-major order
http://www.bom.gov.au/fwo/IDN60903/IDN60903.94926.json